Weather

BOSCOMBE DOWN (EGDM)

METAR

EGDM 131950Z AUTO 01008KT 6000 BR FEW100/// 19/18 Q1012

TAF

TAF EGDM 211948Z 2121/2212 23015G25KT 9999 BKN020 TEMPO 2121/2201 BKN012 BECMG 2201/2203 BKN010 PROB30 TEMPO 2201/2208 24020G35KT PROB40 TEMPO 2202/2210 3000 -RADZ BKN006 BECMG 2209/2211 SCT025 TEMPO 2211/2212 SCT015

BRISTOL AIRPORT (EGGD)

METAR

EGGD 132020Z AUTO 05010KT 6000 BKN008 19/18 Q1014

TAF

TAF EGGD 131700Z 1318/1418 04008KT 8000 FEW006 SCT040 PROB30 TEMPO 1318/1321 VRB15G30KT 2500 +TSRAGR BKN006 BKN040CB BECMG 1321/1324 4000 BR BKN006 PROB30 TEMPO 1321/1412 +TSRAGR TEMPO 1400/1412 1200 BKN002 PROB30 1400/1409 0300 FG BKN001 BECMG 1412/1415 9999 NSW FEW008 SCT040 PROB30 TEMPO 1412/1418 VRB15G30KT 2500 +TSRAGR TEMPO 1415/1418 BKN008

BRIZE NORTON (EGVN)

METAR

EGVN 132020Z 01007KT 6000 -SHRA SCT014 BKN070 20/17 Q1013 NOSIG RMK GRN GRN

TAF

TAF EGVN 131931Z 1321/1421 04006KT 7000 HZ BKN012 PROB30 TEMPO 1321/1324 07018G30KT 3000 +TSGS BKN050CB BECMG 1400/1402 4000 BR PROB30 1402/1408 3000 BKN005 BECMG 1408/1411 9999 NSW BKN020 BECMG 1411/1414 SCT030 PROB30 TEMPO 1413/1421 6000 SHRA BKN030CB

OXFORD (EGTK)

METAR

EGTK 131920Z 04006KT 3000 BR OVC013 20/18 Q1013

Pressure charts

Click to see pressure charts
(redidrection to MetOffice website)